Everton, Arkansas
Current Conditions -  °F | °C
As of 1:53 PM on Sunday 23 Nov 2014 (Local Time) from KHRO Reporting Station
Overcast Overcast  
Wind Chill: 62°   Ceiling: 2000
Heat Index: 62°   Visibility: 10mi
Dew Point: 57°   Wind: 8mph
Humidity: 84%   Direction: 170°S
Pressure: 29.35"   Gusts: NA
Location:  36.16°N, 92.91°W
Report Text: KHRO 231953Z AUTO 17007KT 10SM FEW014 BKN020 OVC027 17/14 A2935 RMK AO2 SLP930 T01670139
Loading
Personal Weather Stations






























Interactive Weather Map New forecast layout! Learn more

10-Day Weather Forecast

Advertisements
Track Severe Weather on mobile